Time;durP1;ratioP1;P1;durP2;ratioP2;P2;SDS_P1;SDS_P2;PMS_P1;PMS_P2;Temp;Humidity;BMP_temperature;BMP_pressure;BME280_temperature;BME280_humidity;BME280_pressure;Samples;Min_cycle;Max_cycle;Signal;HPM_P1;HPM_P2
2022/12/09 00:01:59;;;;;;;155.18;15.68;;;;;;;;;;5081545;28;20135;-82
2022/12/09 00:04:25;;;;;;;72.72;12.55;;;;;;;;;;5081949;28;20389;-83
2022/12/09 00:06:51;;;;;;;138.93;22.63;;;;;;;;;;5064502;28;20051;-83
2022/12/09 00:09:17;;;;;;;165.98;18.33;;;;;;;;;;5080644;28;20040;-83
2022/12/09 00:11:43;;;;;;;183.38;18.80;;;;;;;;;;5065288;28;20169;-83
2022/12/09 00:14:11;;;;;;;301.17;25.77;;;;;;;;;;5076359;28;20047;-84
2022/12/09 00:16:37;;;;;;;220.20;23.02;;;;;;;;;;5092887;28;20139;-85
2022/12/09 00:19:03;;;;;;;127.40;15.57;;;;;;;;;;5093017;28;20496;-85
2022/12/09 00:21:31;;;;;;;203.98;20.45;;;;;;;;;;5076033;28;20091;-86
2022/12/09 00:23:58;;;;;;;238.43;23.55;;;;;;;;;;5076408;28;20040;-85
2022/12/09 00:26:24;;;;;;;84.88;12.90;;;;;;;;;;5075871;28;20412;-84
2022/12/09 00:28:51;;;;;;;188.45;18.95;;;;;;;;;;5075797;28;20044;-84
2022/12/09 00:31:19;;;;;;;104.65;13.98;;;;;;;;;;5076016;28;20050;-84
2022/12/09 00:33:45;;;;;;;97.22;13.07;;;;;;;;;;5076114;28;20046;-85
2022/12/09 00:36:13;;;;;;;89.05;12.98;;;;;;;;;;5093019;28;20434;-85
2022/12/09 00:38:39;;;;;;;31.00;11.63;;;;;;;;;;5092798;28;20040;-84
2022/12/09 00:41:05;;;;;;;13.70;9.25;;;;;;;;;;5093043;28;20048;-85
2022/12/09 00:43:32;;;;;;;18.23;9.68;;;;;;;;;;5059111;28;20048;-84
2022/12/09 00:45:58;;;;;;;15.63;9.25;;;;;;;;;;5075417;28;20131;-85
2022/12/09 00:48:33;;;;;;;14.65;10.10;;;;;;;;;;5092434;28;20047;-85
2022/12/09 00:51:08;;;;;;;15.00;9.93;;;;;;;;;;5093247;28;20058;-84
2022/12/09 00:53:54;;;;;;;16.77;10.82;;;;;;;;;;5093424;28;20043;-85
2022/12/09 00:56:21;;;;;;;13.38;10.20;;;;;;;;;;5093147;28;20043;-85
2022/12/09 00:58:49;;;;;;;13.48;9.02;;;;;;;;;;5100096;28;20118;-83
2022/12/09 01:01:16;;;;;;;14.00;9.43;;;;;;;;;;5098694;28;20134;-83
2022/12/09 01:03:43;;;;;;;12.48;9.68;;;;;;;;;;5097567;28;20119;-83
2022/12/09 01:06:17;;;;;;;14.60;8.82;;;;;;;;;;5081131;28;20043;-83
2022/12/09 01:08:43;;;;;;;14.02;9.77;;;;;;;;;;5099454;28;20036;-83
2022/12/09 01:11:18;;;;;;;12.65;9.10;;;;;;;;;;5078509;28;20106;-83
2022/12/09 01:13:44;;;;;;;15.63;9.68;;;;;;;;;;5078169;28;20047;-83
2022/12/09 01:16:18;;;;;;;14.32;9.05;;;;;;;;;;5078228;28;20083;-83
2022/12/09 01:18:44;;;;;;;20.25;10.90;;;;;;;;;;5078382;28;20510;-83
2022/12/09 01:21:10;;;;;;;13.48;9.77;;;;;;;;;;5061263;28;20511;-83
2022/12/09 01:23:36;;;;;;;21.50;10.00;;;;;;;;;;5061416;28;20043;-83
2022/12/09 01:26:03;;;;;;;24.02;10.23;;;;;;;;;;5095649;28;20104;-84
2022/12/09 01:28:29;;;;;;;36.65;11.20;;;;;;;;;;5063630;28;20040;-84
2022/12/09 01:30:55;;;;;;;51.50;11.73;;;;;;;;;;5080112;28;20048;-83
2022/12/09 01:33:21;;;;;;;28.30;10.25;;;;;;;;;;5075175;28;20552;-84
2022/12/09 01:35:47;;;;;;;11.93;8.50;;;;;;;;;;5092129;28;20115;-84
2022/12/09 01:38:13;;;;;;;14.82;9.68;;;;;;;;;;5075002;28;20040;-83
2022/12/09 01:40:44;;;;;;;12.85;9.27;;;;;;;;;;5092914;28;20044;-84
2022/12/09 01:43:16;;;;;;;11.65;8.73;;;;;;;;;;5091431;28;20540;-84
2022/12/09 01:45:42;;;;;;;13.07;8.82;;;;;;;;;;5074230;28;20048;-85
2022/12/09 01:48:10;;;;;;;13.55;9.43;;;;;;;;;;5074325;28;20044;-84
2022/12/09 01:50:38;;;;;;;13.98;9.40;;;;;;;;;;5091251;28;20488;-85
2022/12/09 01:53:04;;;;;;;12.93;9.80;;;;;;;;;;5092729;28;20066;-85
2022/12/09 01:55:31;;;;;;;18.83;9.95;;;;;;;;;;5091362;28;20488;-84
2022/12/09 01:57:57;;;;;;;13.88;10.15;;;;;;;;;;5057837;28;20079;-84
2022/12/09 02:00:23;;;;;;;14.00;9.43;;;;;;;;;;5057475;28;20135;-83
2022/12/09 02:02:50;;;;;;;15.73;11.02;;;;;;;;;;5091279;28;20474;-86
2022/12/09 02:05:16;;;;;;;14.98;10.32;;;;;;;;;;5074337;28;20040;-83
2022/12/09 02:07:42;;;;;;;17.05;10.70;;;;;;;;;;5074265;28;20087;-82
2022/12/09 02:10:10;;;;;;;21.45;11.40;;;;;;;;;;5057649;28;20061;-83
2022/12/09 02:12:51;;;;;;;15.75;10.43;;;;;;;;;;5090834;28;20044;-83
2022/12/09 02:15:30;;;;;;;20.70;11.48;;;;;;;;;;5073658;28;20139;-84
2022/12/09 02:17:56;;;;;;;27.80;12.38;;;;;;;;;;5090820;28;20230;-83
2022/12/09 02:20:29;;;;;;;20.48;10.75;;;;;;;;;;5074349;28;20080;-85
2022/12/09 02:22:58;;;;;;;25.52;11.20;;;;;;;;;;5074383;28;20130;-84
2022/12/09 02:25:35;;;;;;;18.75;12.50;;;;;;;;;;5090916;28;20079;-84
2022/12/09 02:28:24;;;;;;;20.02;12.10;;;;;;;;;;5091151;28;20105;-83
2022/12/09 02:30:54;;;;;;;23.27;11.25;;;;;;;;;;5074314;28;20147;-85
2022/12/09 02:33:23;;;;;;;17.40;10.63;;;;;;;;;;5090740;28;20524;-83
2022/12/09 02:35:52;;;;;;;20.80;11.07;;;;;;;;;;5073848;28;20044;-83
2022/12/09 02:38:23;;;;;;;16.92;11.23;;;;;;;;;;5073769;28;20074;-82
2022/12/09 02:40:54;;;;;;;20.33;12.60;;;;;;;;;;5090550;28;20044;-83
2022/12/09 02:43:24;;;;;;;22.58;11.52;;;;;;;;;;5074437;28;20500;-84
2022/12/09 02:45:51;;;;;;;20.48;11.85;;;;;;;;;;5073521;28;20567;-83
2022/12/09 02:48:19;;;;;;;18.98;11.88;;;;;;;;;;5091082;28;20040;-83
2022/12/09 02:50:47;;;;;;;19.80;11.38;;;;;;;;;;5074340;28;20109;-87
2022/12/09 02:53:14;;;;;;;21.88;11.43;;;;;;;;;;5075004;28;20044;-82
2022/12/09 02:55:41;;;;;;;25.70;11.05;;;;;;;;;;5074252;28;20404;-82
2022/12/09 02:58:07;;;;;;;24.27;11.45;;;;;;;;;;5073850;28;20174;-82
2022/12/09 03:00:33;;;;;;;23.70;12.02;;;;;;;;;;5057818;28;20154;-84
2022/12/09 03:03:01;;;;;;;24.50;12.43;;;;;;;;;;5074442;28;20068;-82
2022/12/09 03:05:40;;;;;;;21.38;12.45;;;;;;;;;;5090756;28;20068;-82
2022/12/09 03:08:12;;;;;;;21.52;12.93;;;;;;;;;;5091194;28;20040;-82
2022/12/09 03:10:43;;;;;;;22.40;11.65;;;;;;;;;;5074347;28;20522;-81
2022/12/09 03:13:14;;;;;;;20.30;11.57;;;;;;;;;;5093405;28;20584;-81
2022/12/09 03:15:42;;;;;;;20.20;11.15;;;;;;;;;;5094374;28;20047;-82
2022/12/09 03:18:10;;;;;;;22.33;12.80;;;;;;;;;;5077499;28;20097;-81
2022/12/09 03:20:39;;;;;;;48.28;13.40;;;;;;;;;;5094071;28;20059;-81
2022/12/09 03:23:08;;;;;;;30.48;11.80;;;;;;;;;;5095126;28;20089;-81
2022/12/09 03:25:38;;;;;;;20.50;11.15;;;;;;;;;;5076762;28;20105;-82
2022/12/09 03:28:06;;;;;;;21.60;12.05;;;;;;;;;;5093660;28;20057;-82
2022/12/09 03:30:35;;;;;;;20.88;11.80;;;;;;;;;;5076537;28;20480;-82
2022/12/09 03:33:02;;;;;;;20.23;11.25;;;;;;;;;;5093421;28;20139;-85
2022/12/09 03:35:32;;;;;;;21.55;12.32;;;;;;;;;;5076560;28;20040;-85
2022/12/09 03:37:59;;;;;;;21.67;11.25;;;;;;;;;;5093906;28;20090;-85
2022/12/09 03:40:27;;;;;;;22.80;12.50;;;;;;;;;;5094244;28;20071;-85
2022/12/09 03:43:03;;;;;;;25.45;14.68;;;;;;;;;;5094320;28;20127;-83
2022/12/09 03:45:29;;;;;;;21.23;11.98;;;;;;;;;;5076314;28;20048;-85
2022/12/09 03:47:56;;;;;;;23.23;13.30;;;;;;;;;;5076837;28;20516;-85
2022/12/09 03:50:24;;;;;;;22.98;12.40;;;;;;;;;;5093922;28;20082;-84
2022/12/09 03:52:56;;;;;;;23.83;11.70;;;;;;;;;;5093388;28;20036;-82
2022/12/09 03:55:42;;;;;;;21.70;12.32;;;;;;;;;;5093186;28;20044;-85
2022/12/09 03:58:09;;;;;;;21.83;12.02;;;;;;;;;;5076497;28;20031;-82
2022/12/09 04:00:38;;;;;;;24.75;13.88;;;;;;;;;;5093170;28;20043;-82
2022/12/09 04:03:06;;;;;;;22.98;12.82;;;;;;;;;;5076188;28;20199;-82
2022/12/09 04:05:32;;;;;;;20.58;11.80;;;;;;;;;;5059449;28;20055;-84
2022/12/09 04:07:58;;;;;;;19.52;11.88;;;;;;;;;;5076329;28;20040;-85
2022/12/09 04:10:24;;;;;;;21.00;11.57;;;;;;;;;;5076120;28;20448;-85
2022/12/09 04:12:50;;;;;;;22.15;12.00;;;;;;;;;;5093254;28;20488;-84
2022/12/09 04:15:16;;;;;;;24.73;12.77;;;;;;;;;;5093112;28;20044;-83
2022/12/09 04:17:42;;;;;;;20.55;11.32;;;;;;;;;;5076071;28;20048;-82
2022/12/09 04:20:08;;;;;;;22.05;10.68;;;;;;;;;;5059870;28;20044;-82
2022/12/09 04:22:34;;;;;;;26.63;11.95;;;;;;;;;;5059404;28;20044;-82
2022/12/09 04:25:00;;;;;;;21.35;11.52;;;;;;;;;;5075646;28;20051;-83
2022/12/09 04:27:26;;;;;;;24.13;10.93;;;;;;;;;;5075808;28;20070;-84
2022/12/09 04:29:52;;;;;;;21.48;12.82;;;;;;;;;;5075887;28;20051;-83
2022/12/09 04:32:18;;;;;;;23.77;12.77;;;;;;;;;;5092680;28;20411;-82
2022/12/09 04:34:44;;;;;;;24.75;11.88;;;;;;;;;;5075967;28;20051;-85
2022/12/09 04:37:11;;;;;;;23.08;12.32;;;;;;;;;;5075520;28;20499;-83
2022/12/09 04:39:40;;;;;;;20.75;11.95;;;;;;;;;;5065272;28;20050;-82
2022/12/09 04:42:06;;;;;;;26.50;11.90;;;;;;;;;;5082751;28;20044;-82
2022/12/09 04:44:32;;;;;;;21.08;11.48;;;;;;;;;;5061924;28;20051;-82
2022/12/09 04:46:58;;;;;;;23.65;13.43;;;;;;;;;;5094225;28;20047;-82
2022/12/09 04:49:24;;;;;;;26.17;13.00;;;;;;;;;;5060077;28;20044;-82
2022/12/09 04:51:50;;;;;;;25.60;11.07;;;;;;;;;;5060368;28;20051;-82
2022/12/09 04:54:16;;;;;;;23.55;12.98;;;;;;;;;;5076338;28;20040;-84
2022/12/09 04:56:42;;;;;;;25.73;12.07;;;;;;;;;;5076219;28;20086;-81
2022/12/09 04:59:08;;;;;;;19.90;11.45;;;;;;;;;;5076966;28;20036;-83
2022/12/09 05:01:34;;;;;;;22.73;10.63;;;;;;;;;;5093353;28;20079;-81
2022/12/09 05:04:00;;;;;;;20.55;12.73;;;;;;;;;;5059539;28;20490;-82
2022/12/09 05:06:27;;;;;;;29.90;12.57;;;;;;;;;;5059195;28;20044;-81
2022/12/09 05:08:53;;;;;;;23.92;12.27;;;;;;;;;;5075855;28;20036;-80
2022/12/09 05:11:20;;;;;;;34.53;13.40;;;;;;;;;;5059068;28;20138;-81
2022/12/09 05:13:46;;;;;;;22.25;12.73;;;;;;;;;;5075486;28;20067;-81
2022/12/09 05:16:13;;;;;;;27.13;12.82;;;;;;;;;;5092331;28;20145;-81
2022/12/09 05:18:39;;;;;;;29.58;12.90;;;;;;;;;;5093497;28;20128;-81
2022/12/09 05:21:07;;;;;;;23.20;11.95;;;;;;;;;;5076411;28;20507;-81
2022/12/09 05:23:34;;;;;;;20.05;12.07;;;;;;;;;;5093416;28;20435;-82
2022/12/09 05:26:03;;;;;;;27.17;12.93;;;;;;;;;;5075514;28;20052;-82
2022/12/09 05:28:30;;;;;;;22.45;12.43;;;;;;;;;;5093144;28;20055;-82
2022/12/09 05:31:03;;;;;;;21.25;11.50;;;;;;;;;;5092232;28;20079;-82
2022/12/09 05:33:29;;;;;;;21.67;12.85;;;;;;;;;;5075034;28;20470;-84
2022/12/09 05:35:55;;;;;;;20.30;11.88;;;;;;;;;;5074235;28;20055;-86
2022/12/09 05:38:22;;;;;;;18.77;10.57;;;;;;;;;;5074493;28;20036;-83
2022/12/09 05:40:48;;;;;;;24.33;12.50;;;;;;;;;;5091556;28;20063;-81
2022/12/09 05:43:14;;;;;;;18.17;11.45;;;;;;;;;;5074752;28;20048;-82
2022/12/09 05:45:40;;;;;;;20.67;10.23;;;;;;;;;;5091419;28;20043;-82
2022/12/09 05:48:06;;;;;;;21.98;10.90;;;;;;;;;;5076087;28;20047;-88
2022/12/09 05:50:32;;;;;;;20.20;12.35;;;;;;;;;;5075539;28;20436;-81
2022/12/09 05:52:58;;;;;;;18.55;12.07;;;;;;;;;;5058273;28;20075;-81
2022/12/09 05:55:24;;;;;;;20.30;11.55;;;;;;;;;;5058503;28;20044;-81
2022/12/09 05:57:51;;;;;;;22.40;11.80;;;;;;;;;;5075826;28;20047;-84
2022/12/09 06:00:17;;;;;;;20.13;11.90;;;;;;;;;;5091689;28;20078;-85
2022/12/09 06:02:43;;;;;;;18.27;11.13;;;;;;;;;;5058569;28;20460;-81
2022/12/09 06:05:09;;;;;;;20.55;12.10;;;;;;;;;;5074986;28;20047;-82
2022/12/09 06:07:35;;;;;;;24.48;11.75;;;;;;;;;;5075406;28;20039;-89
2022/12/09 06:10:02;;;;;;;19.67;11.65;;;;;;;;;;5092058;28;20463;-84
2022/12/09 06:12:28;;;;;;;24.38;11.90;;;;;;;;;;5092144;28;20044;-82
2022/12/09 06:14:54;;;;;;;21.83;10.57;;;;;;;;;;5074448;28;20115;-91
2022/12/09 06:17:20;;;;;;;22.52;13.02;;;;;;;;;;5091127;28;20556;-83
2022/12/09 06:19:46;;;;;;;22.52;11.23;;;;;;;;;;5091055;28;20139;-82
2022/12/09 06:22:12;;;;;;;20.65;11.90;;;;;;;;;;5074141;28;20176;-81
2022/12/09 06:24:38;;;;;;;20.95;11.32;;;;;;;;;;5091453;28;20126;-82
2022/12/09 06:27:04;;;;;;;20.25;12.40;;;;;;;;;;5057825;28;20040;-80
2022/12/09 06:29:30;;;;;;;27.73;14.35;;;;;;;;;;5091544;28;20044;-81
2022/12/09 06:31:56;;;;;;;22.35;12.70;;;;;;;;;;5074346;28;20051;-82
2022/12/09 06:34:22;;;;;;;22.80;11.65;;;;;;;;;;5091130;28;20223;-82
2022/12/09 06:36:48;;;;;;;26.17;11.65;;;;;;;;;;5091056;28;20496;-82
2022/12/09 06:39:14;;;;;;;21.65;11.65;;;;;;;;;;5074336;28;20048;-83
2022/12/09 06:41:41;;;;;;;23.45;11.10;;;;;;;;;;5090964;28;20044;-82
2022/12/09 06:44:07;;;;;;;24.10;11.93;;;;;;;;;;5074180;28;20126;-82
2022/12/09 06:46:33;;;;;;;19.42;11.27;;;;;;;;;;5091068;28;20134;-83
2022/12/09 06:48:59;;;;;;;22.40;11.75;;;;;;;;;;5077327;28;20048;-81
2022/12/09 06:51:25;;;;;;;21.85;12.23;;;;;;;;;;5061787;28;20044;-84
2022/12/09 06:53:52;;;;;;;20.55;11.82;;;;;;;;;;5061008;28;20495;-81
2022/12/09 06:56:18;;;;;;;20.90;12.35;;;;;;;;;;5077894;28;20071;-84
2022/12/09 06:58:45;;;;;;;22.58;12.45;;;;;;;;;;5077400;28;20036;-80
2022/12/09 07:01:17;;;;;;;25.27;13.55;;;;;;;;;;5077641;28;20044;-81
2022/12/09 07:03:48;;;;;;;20.60;11.70;;;;;;;;;;5077687;28;20051;-84
2022/12/09 07:06:23;;;;;;;19.45;11.80;;;;;;;;;;5078020;28;20048;-81
2022/12/09 07:08:49;;;;;;;21.75;11.48;;;;;;;;;;5094342;28;20040;-81
2022/12/09 07:11:15;;;;;;;30.15;14.00;;;;;;;;;;5094230;28;20040;-83
2022/12/09 07:13:41;;;;;;;19.27;11.98;;;;;;;;;;5093753;28;20044;-82
2022/12/09 07:16:07;;;;;;;25.40;12.57;;;;;;;;;;5077080;28;20094;-81
2022/12/09 07:18:33;;;;;;;23.77;12.20;;;;;;;;;;5094017;28;20381;-81
2022/12/09 07:21:05;;;;;;;21.77;12.02;;;;;;;;;;5060870;28;20488;-83
2022/12/09 07:23:34;;;;;;;27.20;12.70;;;;;;;;;;5076664;28;20040;-81
2022/12/09 07:26:01;;;;;;;28.88;14.07;;;;;;;;;;5093540;28;20050;-80
2022/12/09 07:28:27;;;;;;;22.27;13.05;;;;;;;;;;5060304;28;20133;-83
2022/12/09 07:30:53;;;;;;;22.45;12.38;;;;;;;;;;5060420;28;20048;-88
2022/12/09 07:33:19;;;;;;;28.67;14.60;;;;;;;;;;5055364;28;20074;-79
2022/12/09 07:35:45;;;;;;;22.35;12.07;;;;;;;;;;5061000;28;20066;-82
2022/12/09 07:38:11;;;;;;;21.73;13.10;;;;;;;;;;5064061;28;20043;-79
2022/12/09 07:40:39;;;;;;;28.63;14.63;;;;;;;;;;5047271;28;20135;-79
2022/12/09 07:43:06;;;;;;;23.80;13.82;;;;;;;;;;5081105;28;20047;-80
2022/12/09 07:45:35;;;;;;;25.25;14.25;;;;;;;;;;5079746;28;20044;-79
2022/12/09 07:48:02;;;;;;;26.50;14.82;;;;;;;;;;5080757;28;20059;-79
2022/12/09 07:50:28;;;;;;;25.45;13.98;;;;;;;;;;5059399;28;20037;-79
2022/12/09 07:52:54;;;;;;;28.33;14.55;;;;;;;;;;5043030;28;20040;-79
2022/12/09 07:55:20;;;;;;;28.48;14.75;;;;;;;;;;5046460;28;20040;-81
2022/12/09 07:57:46;;;;;;;31.58;15.95;;;;;;;;;;5063668;28;20047;-80
2022/12/09 08:00:12;;;;;;;28.08;15.00;;;;;;;;;;5062999;28;20511;-80
2022/12/09 08:02:38;;;;;;;25.23;14.77;;;;;;;;;;5062638;28;20048;-80
2022/12/09 08:05:05;;;;;;;28.38;14.65;;;;;;;;;;5063493;28;20525;-79
2022/12/09 08:07:32;;;;;;;32.00;15.70;;;;;;;;;;5081182;28;20104;-79
2022/12/09 08:09:58;;;;;;;28.10;16.45;;;;;;;;;;5046889;28;20692;-80
2022/12/09 08:12:24;;;;;;;26.80;14.05;;;;;;;;;;5063048;28;20039;-79
2022/12/09 08:14:50;;;;;;;25.33;14.85;;;;;;;;;;5080686;28;20091;-80
2022/12/09 08:17:17;;;;;;;37.88;16.30;;;;;;;;;;5046765;28;20059;-80
2022/12/09 08:19:43;;;;;;;29.23;15.27;;;;;;;;;;5064571;28;20482;-80
2022/12/09 08:22:09;;;;;;;29.38;16.23;;;;;;;;;;5063844;28;20051;-84
2022/12/09 08:24:35;;;;;;;29.73;16.30;;;;;;;;;;5081187;28;20484;-81
2022/12/09 08:27:01;;;;;;;32.30;16.38;;;;;;;;;;5062797;28;20086;-85
2022/12/09 08:29:27;;;;;;;33.33;17.15;;;;;;;;;;5052063;28;20109;-84
2022/12/09 08:31:53;;;;;;;24.90;15.95;;;;;;;;;;5049495;28;20197;-80
2022/12/09 08:34:19;;;;;;;32.67;16.98;;;;;;;;;;5063363;28;20044;-81
2022/12/09 08:36:45;;;;;;;36.45;17.50;;;;;;;;;;5046786;28;20117;-81
2022/12/09 08:39:12;;;;;;;31.80;16.58;;;;;;;;;;5063019;28;20032;-81
2022/12/09 08:41:38;;;;;;;28.20;15.48;;;;;;;;;;5046682;28;20047;-81
2022/12/09 08:44:04;;;;;;;34.58;17.02;;;;;;;;;;5034159;28;20138;-81
2022/12/09 08:46:31;;;;;;;34.97;16.48;;;;;;;;;;5079091;28;20044;-81
2022/12/09 08:49:00;;;;;;;35.92;15.95;;;;;;;;;;5080193;28;20088;-81
2022/12/09 08:51:26;;;;;;;33.03;17.17;;;;;;;;;;5062600;28;20380;-81
2022/12/09 08:53:52;;;;;;;33.33;17.70;;;;;;;;;;5060010;28;20045;-81
2022/12/09 08:56:19;;;;;;;35.47;17.17;;;;;;;;;;5052438;28;20042;-86
2022/12/09 08:58:47;;;;;;;26.63;16.38;;;;;;;;;;5063690;28;20419;-83
2022/12/09 09:01:17;;;;;;;34.58;15.63;;;;;;;;;;5063461;28;20040;-83
2022/12/09 09:03:44;;;;;;;30.83;16.38;;;;;;;;;;5062901;28;20052;-81
2022/12/09 09:06:10;;;;;;;36.08;18.17;;;;;;;;;;5051275;28;20040;-87
2022/12/09 09:08:37;;;;;;;35.00;18.42;;;;;;;;;;5046918;28;20052;-85
2022/12/09 09:11:09;;;;;;;31.90;17.05;;;;;;;;;;5048925;28;20072;-88
2022/12/09 09:13:35;;;;;;;31.60;16.48;;;;;;;;;;5061219;28;20108;-88
2022/12/09 09:16:02;;;;;;;33.45;16.80;;;;;;;;;;5069174;28;20048;-90
2022/12/09 09:18:28;;;;;;;38.25;17.27;;;;;;;;;;5045001;28;20104;-94
2022/12/09 09:20:57;;;;;;;31.25;15.07;;;;;;;;;;5057604;28;20659;-82
2022/12/09 09:23:24;;;;;;;33.33;15.90;;;;;;;;;;5076397;28;20127;-84
2022/12/09 09:25:50;;;;;;;30.23;15.50;;;;;;;;;;5075851;28;20128;-82
2022/12/09 09:28:16;;;;;;;27.90;15.15;;;;;;;;;;5074124;28;20617;-83
2022/12/09 09:30:42;;;;;;;29.73;16.98;;;;;;;;;;5057347;28;20044;-85
2022/12/09 09:33:08;;;;;;;28.20;15.20;;;;;;;;;;5062113;28;20044;-83
2022/12/09 09:35:35;;;;;;;27.25;14.65;;;;;;;;;;5073715;28;20140;-85
2022/12/09 09:38:02;;;;;;;30.55;15.70;;;;;;;;;;5065110;28;20045;-90
2022/12/09 09:40:28;;;;;;;29.38;15.40;;;;;;;;;;5080372;28;20525;-88
2022/12/09 09:42:56;;;;;;;30.20;17.25;;;;;;;;;;5057493;28;20039;-83
2022/12/09 09:45:22;;;;;;;28.95;15.40;;;;;;;;;;5073771;28;20039;-89
2022/12/09 09:47:51;;;;;;;31.05;15.98;;;;;;;;;;5076949;28;20077;-84
2022/12/09 09:50:36;;;;;;;29.65;15.93;;;;;;;;;;5058868;28;20122;-84
2022/12/09 09:53:11;;;;;;;38.13;17.52;;;;;;;;;;5049600;28;20044;-83
2022/12/09 09:55:48;;;;;;;28.50;16.00;;;;;;;;;;5059929;28;20371;-86
2022/12/09 09:58:25;;;;;;;30.15;16.95;;;;;;;;;;5056309;28;20036;-91
2022/12/09 10:00:54;;;;;;;29.70;16.88;;;;;;;;;;5046407;28;20044;-85
2022/12/09 10:03:27;;;;;;;31.33;17.02;;;;;;;;;;5057475;28;20050;-90
2022/12/09 10:05:54;;;;;;;32.67;16.27;;;;;;;;;;5059970;28;20055;-84
2022/12/09 10:08:55;;;;;;;28.65;15.98;;;0.80;99.90;;;;;;5059430;28;20299;-87
2022/12/09 10:11:21;;;;;;;28.15;16.83;;;;;;;;;;5066836;28;20067;-87
2022/12/09 10:13:53;;;;;;;34.13;17.67;;;;;;;;;;5061166;28;20473;-85
2022/12/09 10:16:22;;;;;;;31.30;15.27;;;;;;;;;;5078881;28;20080;-90
2022/12/09 10:19:03;;;;;;;30.27;16.30;;;;;;;;;;5062948;28;20172;-92
2022/12/09 10:21:30;;;;;;;29.52;15.48;;;;;;;;;;5073859;28;20067;-92
2022/12/09 10:23:57;;;;;;;26.30;15.73;;;;;;;;;;5081454;28;20061;-91
2022/12/09 10:26:28;;;;;;;25.33;15.25;;;;;;;;;;5044049;28;20052;-89
2022/12/09 10:29:02;;;;;;;30.30;16.80;;;;;;;;;;5086297;28;20879;-88
2022/12/09 10:31:28;;;;;;;28.75;16.73;;;;;;;;;;5083986;28;20972;-91
2022/12/09 10:33:54;;;;;;;26.23;15.27;;;;;;;;;;5083791;28;20450;-87
2022/12/09 10:36:25;;;;;;;29.67;16.45;;;;;;;;;;5082827;28;20436;-86
2022/12/09 10:38:52;;;;;;;31.13;17.20;;;;;;;;;;5083330;28;20537;-92
2022/12/09 10:43:33;;;;;;;27.88;14.93;;;;;;;;;;5065758;28;20069;-84
2022/12/09 10:44:20;;;;;;;31.75;18.38;;;;;;;;;;5082149;28;20051;-89
2022/12/09 10:46:47;;;;;;;31.60;16.90;;;;;;;;;;5079029;28;20620;-84
2022/12/09 10:49:21;;;;;;;30.55;16.33;;;;;;;;;;5064682;28;20478;-84
2022/12/09 10:51:51;;;;;;;28.88;15.45;;;;;;;;;;5082682;28;20048;-84
2022/12/09 10:54:22;;;;;;;26.67;15.13;;;;;;;;;;5082827;28;20109;-88
2022/12/09 10:57:01;;;;;;;33.08;18.08;;;;;;;;;;5064710;28;20384;-85
2022/12/09 10:59:28;;;;;;;30.38;16.27;;;;;;;;;;5082682;28;20044;-88
2022/12/09 11:01:54;;;;;;;30.15;16.02;;;;;;;;;;5061408;28;20043;-86
2022/12/09 11:04:23;;;;;;;29.60;16.38;;;;;;;;;;5057197;28;20498;-92
2022/12/09 11:06:49;;;;;;;29.40;14.25;;;;;;;;;;5066684;28;20044;-89
2022/12/09 11:09:21;;;;;;;36.55;18.38;;;;;;;;;;5049902;28;20044;-91
2022/12/09 11:11:48;;;;;;;31.95;17.10;;;;;;;;;;5065041;28;20140;-89
2022/12/09 11:14:26;;;;;;;34.10;17.35;;;;;;;;;;5065143;28;20040;-93
2022/12/09 11:16:54;;;;;;;30.27;16.15;;;;;;;;;;5081111;28;20055;-93
2022/12/09 11:19:30;;;;;;;33.78;17.23;;;;;;;;;;5061351;28;20082;-90
2022/12/09 11:22:15;;;;;;;26.67;15.32;;;;;;;;;;5063752;28;20047;-92
2022/12/09 11:24:41;;;;;;;33.30;17.83;;;;;;;;;;5056232;28;20147;-90
2022/12/09 11:27:26;;;;;;;35.45;18.75;;;;;;;;;;5080061;28;20048;-89
2022/12/09 11:30:25;;;;;;;32.40;16.38;;;;;;;;;;5082753;28;20040;-91
2022/12/09 11:33:04;;;;;;;32.55;15.43;;;;;;;;;;5059667;28;20036;-86
2022/12/09 11:35:36;;;;;;;33.78;17.33;;;;;;;;;;5066387;28;20500;-86
2022/12/09 11:38:21;;;;;;;29.58;16.17;;;;;;;;;;5068571;28;20094;-84
2022/12/09 11:44:01;;;;;;;29.25;15.82;;;;;;;;;;5067974;28;20131;-92
2022/12/09 11:46:28;;;;;;;30.40;17.23;;;;;;;;;;5070524;28;20048;-89
2022/12/09 11:49:00;;;;;;;29.42;16.25;;;;;;;;;;5083357;28;20040;-90
2022/12/09 11:51:32;;;;;;;33.72;17.80;;;;;;;;;;5062670;28;20685;-90
2022/12/09 11:54:03;;;;;;;33.83;16.08;;;;;;;;;;5067174;28;20086;-89
2022/12/09 11:56:29;;;;;;;31.70;15.82;;;;;;;;;;5069273;28;20040;-89
2022/12/09 11:58:59;;;;;;;35.85;16.70;;;;;;;;;;5063200;28;20040;-88
2022/12/09 12:01:25;;;;;;;26.80;14.40;;;;;;;;;;5083420;28;20040;-87
2022/12/09 12:03:55;;;;;;;32.15;17.33;;;;;;;;;;5058718;28;20052;-85
2022/12/09 12:06:23;;;;;;;32.42;16.77;;;;;;;;;;5075084;28;20048;-86
2022/12/09 12:08:52;;;;;;;29.52;15.80;;;;;;;;;;5070674;28;20040;-88
2022/12/09 12:11:20;;;;;;;35.72;18.20;;;;;;;;;;5080146;28;20043;-88
2022/12/09 12:13:51;;;;;;;31.15;16.98;;;;;;;;;;5064475;28;20040;-85
2022/12/09 12:16:17;;;;;;;34.92;16.52;;;;;;;;;;5080532;28;20047;-88
2022/12/09 12:19:12;;;;;;;37.38;18.00;;;;;;;;;;5078818;28;20129;-86
2022/12/09 12:21:44;;;;;;;30.60;17.13;;;;;;;;;;5070238;28;20065;-85
2022/12/09 12:24:24;;;;;;;33.83;18.23;;;;;;;;;;5063442;28;20515;-88
2022/12/09 12:27:13;;;;;;;35.10;17.98;;;;;;;;;;5071449;28;20098;-85
2022/12/09 12:29:53;;;;;;;36.25;19.48;;;;;;;;;;5060592;28;20385;-92
2022/12/09 12:32:38;;;;;;;41.70;21.20;;;;;;;;;;5059691;28;20044;-88
2022/12/09 12:35:13;;;;;;;39.40;18.40;;;;;;;;;;5053016;28;20049;-88
2022/12/09 12:37:59;;;;;;;40.08;20.75;;;;;;;;;;5057018;28;20040;-86
2022/12/09 12:40:45;;;;;;;39.88;20.38;;;;;;;;;;5060312;28;20446;-88
2022/12/09 12:46:35;;;;;;;42.75;22.42;;;;;;;;;;5052280;28;20144;-89
2022/12/09 12:49:20;;;;;;;41.38;22.35;;;;;;;;;;5073396;28;20047;-87
2022/12/09 12:51:46;;;;;;;36.15;19.80;;;;;;;;;;5077260;28;20048;-90
2022/12/09 12:54:33;;;;;;;42.55;22.20;;;;;;;;;;5074339;28;20044;-86
2022/12/09 12:57:04;;;;;;;37.97;19.70;;;;;;;;;;5055012;28;20412;-90
2022/12/09 12:59:43;;;;;;;38.90;19.92;;;;;;;;;;5070314;28;20141;-88
2022/12/09 13:02:18;;;;;;;43.85;20.63;;;;;;;;;;5062529;28;20032;-84
2022/12/09 13:04:44;;;;;;;37.88;20.65;;;;;;;;;;5071457;28;20407;-87
2022/12/09 13:07:29;;;;;;;45.38;22.48;;;;;;;;;;5063910;28;20036;-87
2022/12/09 13:10:14;;;;;;;50.63;22.73;;;;;;;;;;5081203;28;20508;-91
2022/12/09 13:12:55;;;;;;;40.55;21.40;;;;;;;;;;5066236;28;20037;-93
2022/12/09 13:15:41;;;;;;;47.45;22.08;;;;;;;;;;5047885;28;20040;-90
2022/12/09 13:18:20;;;;;;;40.78;20.85;;;;;;;;;;5065239;28;20540;-90
2022/12/09 13:20:50;;;;;;;44.88;22.60;;;;;;;;;;5079969;28;20840;-87
2022/12/09 13:23:28;;;;;;;35.95;19.25;;;;;;;;;;5083441;28;20475;-91
2022/12/09 13:26:01;;;;;;;40.40;21.40;;;;;;;;;;5090228;28;20048;-91
2022/12/09 13:28:39;;;;;;;41.72;20.80;;;;;;;;;;5091172;28;20044;-89
2022/12/09 13:31:08;;;;;;;41.47;21.98;;;;;;;;;;5072560;28;20484;-86
2022/12/09 13:33:39;;;;;;;36.40;19.25;;;;;;;;;;5065222;28;20071;-87
2022/12/09 13:36:17;;;;;;;44.55;23.60;;;;;;;;;;5090123;28;20041;-90
2022/12/09 13:38:43;;;;;;;43.60;23.05;;;;;;;;;;5073343;28;20086;-84
2022/12/09 13:41:27;;;;;;;43.72;21.80;;;1.40;99.90;;;;;;5090196;28;20040;-86
2022/12/09 13:43:57;;;;;;;40.83;21.52;;;;;;;;;;5090464;28;20047;-88
2022/12/09 13:46:26;;;;;;;41.38;22.45;;;;;;;;;;5090471;28;20093;-86
2022/12/09 13:48:53;;;;;;;45.28;22.63;;;;;;;;;;5091209;28;20123;-90
2022/12/09 13:51:20;;;;;;;41.67;21.63;;;;;;;;;;5072847;28;20048;-86
2022/12/09 13:53:49;;;;;;;41.83;21.20;;;;;;;;;;5090679;28;20032;-91
2022/12/09 13:56:15;;;;;;;50.97;23.05;;;;;;;;;;5090010;28;20044;-84
2022/12/09 13:58:41;;;;;;;40.08;20.42;;;;;;;;;;5089713;28;20044;-89
2022/12/09 14:01:07;;;;;;;41.05;20.85;;;;;;;;;;5073381;28;20378;-88
2022/12/09 14:03:35;;;;;;;41.63;20.20;;;;;;;;;;5052609;28;20052;-84
2022/12/09 14:06:03;;;;;;;44.38;21.23;;;;;;;;;;5052277;28;20091;-88
2022/12/09 14:08:33;;;;;;;40.00;18.92;;;;;;;;;;5054425;28;20036;-91
2022/12/09 14:11:19;;;;;;;38.63;21.25;;;;;;;;;;5053538;28;20091;-88
2022/12/09 14:13:45;;;;;;;41.03;18.92;;;;;;;;;;5053149;28;20040;-85
2022/12/09 14:16:16;;;;;;;36.47;19.42;;;;;;;;;;5069035;28;20044;-86
2022/12/09 14:18:43;;;;;;;45.83;21.05;;;;;;;;;;5069231;28;20076;-85
2022/12/09 14:21:18;;;;;;;39.20;19.15;;;;;;;;;;5052825;28;20307;-90
2022/12/09 14:24:17;;;;;;;40.92;20.55;;;;;;;;;;5052926;28;20496;-87
2022/12/09 14:26:45;;;;;;;46.28;22.60;;;;;;;;;;5018975;28;20060;-88
2022/12/09 14:29:11;;;;;;;40.30;20.02;;;;;;;;;;5069224;28;20513;-91
2022/12/09 14:31:43;;;;;;;39.58;19.50;;;;;;;;;;5036675;28;20121;-90
2022/12/09 14:34:36;;;;;;;37.15;18.75;;;;;;;;;;5051972;28;20075;-89
2022/12/09 14:37:14;;;;;;;41.17;20.13;;;;;;;;;;5068134;28;20044;-84